SVA335 OEJN-HECA
Flight info
| Callsign | SVA335 |
|---|---|
| Flight time | 1h 48m |
| Altitude | 36000 |
| Route | MIGDA L677 CVO |
| Aircraft | A20N/M-SDE2E3FGHIRWXY/LB1 |
Departure
| Time | 2026-04-28 21:46 |
|---|---|
| Airport | King Abdulaziz International Airport (OEJN) |
Arrival
| Time | 2026-04-28 23:34 |
|---|---|
| Airport | Cairo International Airport (HECA) |
| Time | Latitude | Longitude | Altitude | Speed | Heading |
|---|---|---|---|---|---|
| 2026-04-28 21:12 | 21.66688 | 39.17224 | 38 ft | 0 kts | 250° |
| 2026-04-28 21:37 | 21.66695 | 39.17247 | 39 ft | 4 kts | 252° |
| 2026-04-28 21:38 | 21.66703 | 39.17275 | 40 ft | 4 kts | 253° |
| 2026-04-28 21:38 | 21.66711 | 39.17303 | 41 ft | 4 kts | 249° |
| 2026-04-28 21:38 | 21.66723 | 39.17326 | 41 ft | 4 kts | 205° |
| 2026-04-28 21:38 | 21.66731 | 39.17330 | 43 ft | 0 kts | 160° |
| 2026-04-28 21:41 | 21.66730 | 39.17330 | 43 ft | 1 kts | 160° |
| 2026-04-28 21:42 | 21.66708 | 39.17339 | 41 ft | 6 kts | 160° |
| 2026-04-28 21:42 | 21.66661 | 39.17358 | 44 ft | 8 kts | 159° |
| 2026-04-28 21:42 | 21.66605 | 39.17380 | 45 ft | 8 kts | 160° |
| 2026-04-28 21:42 | 21.66536 | 39.17411 | 43 ft | 13 kts | 143° |
| 2026-04-28 21:43 | 21.66489 | 39.17485 | 49 ft | 11 kts | 103° |
| 2026-04-28 21:43 | 21.66504 | 39.17563 | 52 ft | 11 kts | 71° |
| 2026-04-28 21:43 | 21.66529 | 39.17642 | 52 ft | 12 kts | 71° |
| 2026-04-28 21:43 | 21.66558 | 39.17727 | 50 ft | 12 kts | 69° |
| 2026-04-28 21:44 | 21.66589 | 39.17815 | 52 ft | 13 kts | 69° |
| 2026-04-28 21:44 | 21.66617 | 39.17896 | 55 ft | 0 kts | 69° |
| 2026-04-28 21:45 | 21.66621 | 39.17905 | 54 ft | 5 kts | 69° |
| 2026-04-28 21:45 | 21.66651 | 39.17991 | 59 ft | 17 kts | 69° |
| 2026-04-28 21:45 | 21.66779 | 39.17997 | 55 ft | 37 kts | 339° |
| 2026-04-28 21:45 | 21.67246 | 39.17816 | 52 ft | 103 kts | 339° |
| 2026-04-28 21:46 | 21.68079 | 39.17488 | 47 ft | 152 kts | 340° |
| 2026-04-28 21:46 | 21.69116 | 39.17075 | 508 ft | 158 kts | 341° |
| 2026-04-28 21:46 | 21.70158 | 39.16688 | 1181 ft | 158 kts | 342° |
| 2026-04-28 21:46 | 21.71224 | 39.16393 | 1807 ft | 160 kts | 356° |
| 2026-04-28 21:47 | 21.72377 | 39.16387 | 2221 ft | 174 kts | 353° |
| 2026-04-28 21:47 | 21.73639 | 39.16177 | 2564 ft | 193 kts | 348° |
| 2026-04-28 21:47 | 21.75056 | 39.16210 | 2912 ft | 218 kts | 10° |
| 2026-04-28 21:47 | 21.76628 | 39.16340 | 3300 ft | 234 kts | 346° |
| 2026-04-28 21:48 | 21.78171 | 39.15728 | 3958 ft | 241 kts | 332° |
| 2026-04-28 21:48 | 21.79707 | 39.14822 | 4370 ft | 263 kts | 328° |
| 2026-04-28 21:48 | 21.81327 | 39.13841 | 5080 ft | 271 kts | 329° |
| 2026-04-28 21:48 | 21.83015 | 39.12881 | 5885 ft | 277 kts | 330° |
| 2026-04-28 21:49 | 21.84761 | 39.11947 | 6643 ft | 283 kts | 332° |
| 2026-04-28 21:49 | 21.86552 | 39.11023 | 7467 ft | 286 kts | 332° |
| 2026-04-28 21:49 | 21.88360 | 39.10107 | 8294 ft | 289 kts | 332° |
| 2026-04-28 21:49 | 21.90169 | 39.09195 | 9110 ft | 292 kts | 332° |
| 2026-04-28 21:50 | 21.92019 | 39.08261 | 9906 ft | 296 kts | 332° |
| 2026-04-28 21:50 | 21.93913 | 39.07303 | 10443 ft | 310 kts | 332° |
| 2026-04-28 21:50 | 21.95933 | 39.06274 | 10659 ft | 332 kts | 332° |
| 2026-04-28 21:50 | 21.98086 | 39.05179 | 11001 ft | 348 kts | 332° |
| 2026-04-28 21:51 | 22.00297 | 39.04059 | 11701 ft | 352 kts | 332° |
| 2026-04-28 21:51 | 22.02519 | 39.02934 | 12416 ft | 355 kts | 332° |
| 2026-04-28 21:51 | 22.04771 | 39.01793 | 13115 ft | 359 kts | 331° |
| 2026-04-28 21:51 | 22.07046 | 39.00638 | 13800 ft | 363 kts | 331° |
| 2026-04-28 21:52 | 22.09339 | 38.99473 | 14423 ft | 366 kts | 331° |
| 2026-04-28 21:52 | 22.11618 | 38.98314 | 15022 ft | 369 kts | 331° |
| 2026-04-28 21:52 | 22.13958 | 38.97124 | 15638 ft | 372 kts | 330° |
| 2026-04-28 21:52 | 22.16312 | 38.95927 | 16251 ft | 375 kts | 330° |
| 2026-04-28 21:53 | 22.18683 | 38.94720 | 16843 ft | 379 kts | 330° |
| 2026-04-28 21:53 | 22.21074 | 38.93502 | 17438 ft | 382 kts | 330° |
| 2026-04-28 21:53 | 22.23490 | 38.92272 | 18028 ft | 385 kts | 330° |
| 2026-04-28 21:53 | 22.25923 | 38.91032 | 18550 ft | 389 kts | 330° |
| 2026-04-28 21:54 | 22.28382 | 38.89779 | 19050 ft | 392 kts | 330° |
| 2026-04-28 21:54 | 22.30858 | 38.88516 | 19548 ft | 395 kts | 329° |
| 2026-04-28 21:54 | 22.33360 | 38.87239 | 20028 ft | 399 kts | 329° |
| 2026-04-28 21:54 | 22.35875 | 38.85955 | 20516 ft | 402 kts | 329° |
| 2026-04-28 21:55 | 22.38414 | 38.84659 | 20988 ft | 405 kts | 329° |
| 2026-04-28 21:55 | 22.40970 | 38.83353 | 21471 ft | 408 kts | 329° |
| 2026-04-28 21:55 | 22.43550 | 38.82034 | 21943 ft | 412 kts | 329° |
| 2026-04-28 21:55 | 22.46149 | 38.80705 | 22405 ft | 415 kts | 329° |
| 2026-04-28 21:56 | 22.48737 | 38.79381 | 22860 ft | 418 kts | 329° |
| 2026-04-28 21:56 | 22.51379 | 38.78029 | 23316 ft | 421 kts | 329° |
| 2026-04-28 21:56 | 22.54009 | 38.76686 | 24001 ft | 415 kts | 328° |
| 2026-04-28 21:56 | 22.56619 | 38.75352 | 24440 ft | 416 kts | 328° |
| 2026-04-28 21:57 | 22.59246 | 38.74005 | 24822 ft | 418 kts | 328° |
| 2026-04-28 21:57 | 22.61875 | 38.72655 | 25239 ft | 418 kts | 328° |
| 2026-04-28 21:57 | 22.64511 | 38.71304 | 25638 ft | 419 kts | 328° |
| 2026-04-28 21:57 | 22.67198 | 38.70025 | 26015 ft | 423 kts | 331° |
| 2026-04-28 21:58 | 22.69935 | 38.68833 | 26391 ft | 425 kts | 332° |
| 2026-04-28 21:58 | 22.72687 | 38.67652 | 26738 ft | 426 kts | 331° |
| 2026-04-28 21:58 | 22.75445 | 38.66459 | 27078 ft | 427 kts | 331° |
| 2026-04-28 21:58 | 22.78205 | 38.65250 | 27411 ft | 428 kts | 331° |
| 2026-04-28 21:59 | 22.80933 | 38.64046 | 27725 ft | 429 kts | 330° |
| 2026-04-28 21:59 | 22.83697 | 38.62820 | 28041 ft | 430 kts | 330° |
| 2026-04-28 21:59 | 22.86476 | 38.61585 | 28336 ft | 431 kts | 330° |
| 2026-04-28 22:00 | 22.92044 | 38.59108 | 28899 ft | 434 kts | 330° |
| 2026-04-28 22:00 | 22.93935 | 38.58267 | 29081 ft | 435 kts | 330° |
| 2026-04-28 22:00 | 22.96706 | 38.57034 | 29348 ft | 436 kts | 330° |
| 2026-04-28 22:00 | 22.99513 | 38.55784 | 29609 ft | 437 kts | 330° |
| 2026-04-28 22:01 | 23.02328 | 38.54530 | 29869 ft | 438 kts | 330° |
| 2026-04-28 22:01 | 23.05155 | 38.53270 | 30088 ft | 439 kts | 329° |
| 2026-04-28 22:01 | 23.07991 | 38.52005 | 30254 ft | 441 kts | 329° |
| 2026-04-28 22:01 | 23.10840 | 38.50734 | 30441 ft | 443 kts | 329° |
| 2026-04-28 22:02 | 23.13702 | 38.49456 | 30619 ft | 445 kts | 329° |
| 2026-04-28 22:02 | 23.16576 | 38.48173 | 30789 ft | 448 kts | 329° |
| 2026-04-28 22:02 | 23.19466 | 38.46882 | 30974 ft | 450 kts | 329° |
| 2026-04-28 22:02 | 23.22360 | 38.45589 | 31218 ft | 450 kts | 329° |
| 2026-04-28 22:03 | 23.25259 | 38.44294 | 31476 ft | 450 kts | 329° |
| 2026-04-28 22:03 | 23.28154 | 38.43000 | 31719 ft | 450 kts | 329° |
| 2026-04-28 22:03 | 23.31054 | 38.41703 | 31964 ft | 451 kts | 329° |
| 2026-04-28 22:03 | 23.33921 | 38.40420 | 32199 ft | 451 kts | 329° |
| 2026-04-28 22:04 | 23.36823 | 38.39119 | 32436 ft | 451 kts | 329° |
| 2026-04-28 22:04 | 23.39729 | 38.37817 | 32668 ft | 451 kts | 329° |
| 2026-04-28 22:04 | 23.42634 | 38.36514 | 32888 ft | 452 kts | 329° |
| 2026-04-28 22:04 | 23.45540 | 38.35211 | 33123 ft | 452 kts | 329° |
| 2026-04-28 22:05 | 23.48451 | 38.33904 | 33357 ft | 452 kts | 329° |
| 2026-04-28 22:05 | 23.51359 | 38.32598 | 33584 ft | 452 kts | 329° |
| 2026-04-28 22:05 | 23.54270 | 38.31290 | 33824 ft | 452 kts | 328° |
| 2026-04-28 22:05 | 23.57181 | 38.29982 | 34040 ft | 451 kts | 328° |
| 2026-04-28 22:06 | 23.60082 | 38.28678 | 34275 ft | 450 kts | 328° |
| 2026-04-28 22:06 | 23.62934 | 38.27395 | 34514 ft | 449 kts | 328° |
| 2026-04-28 22:06 | 23.65817 | 38.26097 | 34739 ft | 447 kts | 328° |
| 2026-04-28 22:06 | 23.68688 | 38.24804 | 34963 ft | 446 kts | 328° |
| 2026-04-28 22:07 | 23.71556 | 38.23510 | 35184 ft | 445 kts | 328° |
| 2026-04-28 22:07 | 23.74419 | 38.22219 | 35409 ft | 444 kts | 328° |
| 2026-04-28 22:07 | 23.77268 | 38.20932 | 35617 ft | 443 kts | 328° |
| 2026-04-28 22:07 | 23.80118 | 38.19646 | 35821 ft | 442 kts | 328° |
| 2026-04-28 22:08 | 23.82956 | 38.18364 | 35879 ft | 440 kts | 328° |
| 2026-04-28 22:08 | 23.88603 | 38.15812 | 35873 ft | 438 kts | 328° |
| 2026-04-28 22:09 | 23.94291 | 38.13232 | 35858 ft | 447 kts | 328° |
| 2026-04-28 22:09 | 24.00074 | 38.10613 | 35841 ft | 452 kts | 328° |
| 2026-04-28 22:10 | 24.05887 | 38.07979 | 35829 ft | 455 kts | 328° |
| 2026-04-28 22:10 | 24.11736 | 38.05330 | 35830 ft | 454 kts | 328° |
| 2026-04-28 22:11 | 24.17233 | 38.02156 | 35829 ft | 441 kts | 317° |
| 2026-04-28 22:11 | 24.22269 | 37.98377 | 35832 ft | 439 kts | 316° |
| 2026-04-28 22:12 | 24.27307 | 37.94610 | 35831 ft | 438 kts | 316° |
| 2026-04-28 22:12 | 24.32336 | 37.90841 | 35833 ft | 438 kts | 316° |
| 2026-04-28 22:13 | 24.37363 | 37.87065 | 35842 ft | 437 kts | 316° |
| 2026-04-28 22:13 | 24.42379 | 37.83292 | 35850 ft | 437 kts | 316° |
| 2026-04-28 22:14 | 24.47372 | 37.79534 | 35857 ft | 437 kts | 316° |
| 2026-04-28 22:14 | 24.52388 | 37.75754 | 35866 ft | 437 kts | 316° |
| 2026-04-28 22:15 | 24.57353 | 37.72017 | 35861 ft | 425 kts | 316° |
| 2026-04-28 22:15 | 24.62213 | 37.68347 | 35873 ft | 425 kts | 315° |
| 2026-04-28 22:16 | 24.67097 | 37.64649 | 35877 ft | 425 kts | 316° |
| 2026-04-28 22:16 | 24.71976 | 37.60958 | 35881 ft | 425 kts | 316° |
| 2026-04-28 22:17 | 24.76849 | 37.57269 | 35887 ft | 425 kts | 315° |
| 2026-04-28 22:17 | 24.81724 | 37.53572 | 35901 ft | 426 kts | 315° |
| 2026-04-28 22:18 | 24.86576 | 37.49892 | 35898 ft | 426 kts | 315° |
| 2026-04-28 22:18 | 24.91450 | 37.46191 | 35904 ft | 425 kts | 315° |
| 2026-04-28 22:19 | 24.96320 | 37.42491 | 35905 ft | 425 kts | 315° |
| 2026-04-28 22:19 | 25.01182 | 37.38792 | 35903 ft | 424 kts | 315° |
| 2026-04-28 22:20 | 25.06030 | 37.35100 | 35899 ft | 423 kts | 315° |
| 2026-04-28 22:20 | 25.08574 | 37.33162 | 35902 ft | 423 kts | 315° |
| 2026-04-28 22:21 | 25.13414 | 37.29470 | 35899 ft | 422 kts | 315° |
| 2026-04-28 22:21 | 25.18248 | 37.25780 | 35896 ft | 422 kts | 315° |
| 2026-04-28 22:22 | 25.23038 | 37.22119 | 35896 ft | 421 kts | 315° |
| 2026-04-28 22:22 | 25.27854 | 37.18436 | 35894 ft | 421 kts | 315° |
| 2026-04-28 22:23 | 25.32665 | 37.14751 | 35892 ft | 420 kts | 315° |
| 2026-04-28 22:23 | 25.37465 | 37.11070 | 35889 ft | 420 kts | 315° |
| 2026-04-28 22:24 | 25.42271 | 37.07381 | 35890 ft | 420 kts | 315° |
| 2026-04-28 22:24 | 25.47046 | 37.03712 | 35893 ft | 420 kts | 315° |
| 2026-04-28 22:25 | 25.51839 | 37.00027 | 35896 ft | 419 kts | 314° |
| 2026-04-28 22:25 | 25.56632 | 36.96337 | 35893 ft | 419 kts | 314° |
| 2026-04-28 22:26 | 25.61424 | 36.92645 | 35896 ft | 419 kts | 314° |
| 2026-04-28 22:26 | 25.66215 | 36.88950 | 35901 ft | 419 kts | 314° |
| 2026-04-28 22:27 | 25.70999 | 36.85256 | 35908 ft | 419 kts | 314° |
| 2026-04-28 22:27 | 25.75791 | 36.81552 | 35908 ft | 419 kts | 314° |
| 2026-04-28 22:28 | 25.80541 | 36.77877 | 35907 ft | 419 kts | 314° |
| 2026-04-28 22:28 | 25.85325 | 36.74173 | 35907 ft | 419 kts | 314° |
| 2026-04-28 22:29 | 25.90110 | 36.70464 | 35908 ft | 419 kts | 314° |
| 2026-04-28 22:29 | 25.94891 | 36.66754 | 35911 ft | 418 kts | 314° |
| 2026-04-28 22:30 | 25.99662 | 36.63048 | 35910 ft | 418 kts | 314° |
| 2026-04-28 22:30 | 26.04425 | 36.59344 | 35911 ft | 418 kts | 314° |
| 2026-04-28 22:31 | 26.09158 | 36.55661 | 35913 ft | 417 kts | 314° |
| 2026-04-28 22:31 | 26.13918 | 36.51951 | 35914 ft | 417 kts | 314° |
| 2026-04-28 22:32 | 26.18483 | 36.48054 | 35911 ft | 407 kts | 307° |
| 2026-04-28 22:32 | 26.22409 | 36.43660 | 35918 ft | 401 kts | 304° |
| 2026-04-28 22:33 | 26.26293 | 36.39195 | 35908 ft | 401 kts | 304° |
| 2026-04-28 22:33 | 26.30144 | 36.34766 | 35905 ft | 400 kts | 304° |
| 2026-04-28 22:34 | 26.34014 | 36.30303 | 35906 ft | 400 kts | 304° |
| 2026-04-28 22:34 | 26.37880 | 36.25838 | 35905 ft | 400 kts | 304° |
| 2026-04-28 22:35 | 26.41744 | 36.21371 | 35901 ft | 399 kts | 304° |
| 2026-04-28 22:35 | 26.45579 | 36.16934 | 35897 ft | 399 kts | 304° |
| 2026-04-28 22:36 | 26.49438 | 36.12463 | 35896 ft | 399 kts | 304° |
| 2026-04-28 22:36 | 26.53289 | 36.07998 | 35898 ft | 398 kts | 304° |
| 2026-04-28 22:37 | 26.57120 | 36.03551 | 35899 ft | 398 kts | 304° |
| 2026-04-28 22:37 | 26.60963 | 35.99086 | 35900 ft | 398 kts | 304° |
| 2026-04-28 22:38 | 26.64774 | 35.94653 | 35899 ft | 398 kts | 304° |
| 2026-04-28 22:38 | 26.68612 | 35.90184 | 35898 ft | 398 kts | 304° |
| 2026-04-28 22:39 | 26.72426 | 35.85739 | 35899 ft | 397 kts | 304° |
| 2026-04-28 22:39 | 26.76259 | 35.81267 | 35895 ft | 397 kts | 304° |
| 2026-04-28 22:40 | 26.80091 | 35.76792 | 35897 ft | 397 kts | 304° |
| 2026-04-28 22:40 | 26.83900 | 35.72339 | 35896 ft | 397 kts | 304° |
| 2026-04-28 22:41 | 26.87732 | 35.67855 | 35897 ft | 397 kts | 304° |
| 2026-04-28 22:41 | 26.91540 | 35.63395 | 35898 ft | 397 kts | 304° |
| 2026-04-28 22:42 | 26.95366 | 35.58909 | 35898 ft | 397 kts | 304° |
| 2026-04-28 22:42 | 26.99166 | 35.54448 | 35894 ft | 397 kts | 304° |
| 2026-04-28 22:43 | 27.02994 | 35.49951 | 35894 ft | 397 kts | 304° |
| 2026-04-28 22:43 | 27.06800 | 35.45473 | 35898 ft | 397 kts | 304° |
| 2026-04-28 22:44 | 27.10624 | 35.40970 | 35898 ft | 397 kts | 304° |
| 2026-04-28 22:44 | 27.14426 | 35.36489 | 35898 ft | 397 kts | 305° |
| 2026-04-28 22:45 | 27.18241 | 35.31987 | 35894 ft | 397 kts | 305° |
| 2026-04-28 22:45 | 27.22056 | 35.27481 | 35892 ft | 397 kts | 305° |
| 2026-04-28 22:46 | 27.25860 | 35.22984 | 35892 ft | 397 kts | 305° |
| 2026-04-28 22:46 | 27.29653 | 35.18493 | 35895 ft | 397 kts | 305° |
| 2026-04-28 22:47 | 27.32824 | 35.14736 | 35896 ft | 397 kts | 305° |
| 2026-04-28 22:47 | 27.37249 | 35.09487 | 35896 ft | 397 kts | 305° |
| 2026-04-28 22:48 | 27.40415 | 35.05729 | 35895 ft | 397 kts | 305° |
| 2026-04-28 22:48 | 27.44842 | 35.00467 | 35894 ft | 397 kts | 305° |
| 2026-04-28 22:49 | 27.48025 | 34.96679 | 35892 ft | 397 kts | 305° |
| 2026-04-28 22:49 | 27.51844 | 34.92197 | 35896 ft | 400 kts | 308° |
| 2026-04-28 22:50 | 27.55921 | 34.87907 | 35895 ft | 401 kts | 308° |
| 2026-04-28 22:50 | 27.59977 | 34.83625 | 35899 ft | 401 kts | 308° |
| 2026-04-28 22:51 | 27.64054 | 34.79314 | 35903 ft | 401 kts | 308° |
| 2026-04-28 22:51 | 27.68098 | 34.75033 | 35894 ft | 401 kts | 308° |
| 2026-04-28 22:52 | 27.72167 | 34.70721 | 35905 ft | 401 kts | 308° |
| 2026-04-28 22:52 | 27.76220 | 34.66421 | 35910 ft | 401 kts | 308° |
| 2026-04-28 22:53 | 27.80304 | 34.62084 | 35919 ft | 401 kts | 308° |
| 2026-04-28 22:53 | 27.84343 | 34.57790 | 35928 ft | 401 kts | 308° |
| 2026-04-28 22:54 | 27.88413 | 34.53459 | 35934 ft | 401 kts | 308° |
| 2026-04-28 22:54 | 27.92483 | 34.49123 | 35940 ft | 401 kts | 308° |
| 2026-04-28 22:55 | 27.96529 | 34.44810 | 35941 ft | 402 kts | 309° |
| 2026-04-28 22:55 | 28.00482 | 34.40373 | 35898 ft | 395 kts | 304° |
| 2026-04-28 22:55 | 28.02224 | 34.37999 | 35575 ft | 391 kts | 302° |
| 2026-04-28 22:56 | 28.03942 | 34.35612 | 34996 ft | 391 kts | 302° |
| 2026-04-28 22:56 | 28.05662 | 34.33233 | 34443 ft | 389 kts | 303° |
| 2026-04-28 22:56 | 28.07381 | 34.30855 | 33787 ft | 389 kts | 303° |
| 2026-04-28 22:56 | 28.09100 | 34.28474 | 32902 ft | 392 kts | 303° |
| 2026-04-28 22:57 | 28.10837 | 34.26065 | 31993 ft | 396 kts | 303° |
| 2026-04-28 22:57 | 28.12592 | 34.23628 | 31043 ft | 402 kts | 304° |
| 2026-04-28 22:57 | 28.14350 | 34.21185 | 30158 ft | 406 kts | 304° |
| 2026-04-28 22:57 | 28.16146 | 34.18692 | 29362 ft | 406 kts | 304° |
| 2026-04-28 22:58 | 28.17929 | 34.16221 | 28699 ft | 402 kts | 304° |
| 2026-04-28 22:58 | 28.19695 | 34.13774 | 28056 ft | 399 kts | 304° |
| 2026-04-28 22:58 | 28.21447 | 34.11342 | 27374 ft | 396 kts | 304° |
| 2026-04-28 22:58 | 28.23167 | 34.08952 | 26768 ft | 393 kts | 305° |
| 2026-04-28 22:59 | 28.24891 | 34.06552 | 26142 ft | 391 kts | 305° |
| 2026-04-28 22:59 | 28.26588 | 34.04192 | 25979 ft | 381 kts | 304° |
| 2026-04-28 22:59 | 28.28288 | 34.01821 | 25978 ft | 391 kts | 304° |
| 2026-04-28 22:59 | 28.30011 | 33.99414 | 25979 ft | 392 kts | 305° |
| 2026-04-28 23:00 | 28.31716 | 33.97037 | 25978 ft | 391 kts | 305° |
| 2026-04-28 23:00 | 28.33445 | 33.94626 | 25982 ft | 393 kts | 305° |
| 2026-04-28 23:00 | 28.35169 | 33.92222 | 25978 ft | 391 kts | 305° |
| 2026-04-28 23:00 | 28.36887 | 33.89823 | 25973 ft | 391 kts | 305° |
| 2026-04-28 23:01 | 28.38587 | 33.87449 | 25973 ft | 390 kts | 305° |
| 2026-04-28 23:01 | 28.40304 | 33.85049 | 25972 ft | 391 kts | 305° |
| 2026-04-28 23:01 | 28.42019 | 33.82649 | 25971 ft | 391 kts | 304° |
| 2026-04-28 23:01 | 28.43736 | 33.80246 | 25974 ft | 391 kts | 305° |
| 2026-04-28 23:02 | 28.45454 | 33.77841 | 25974 ft | 391 kts | 305° |
| 2026-04-28 23:02 | 28.47159 | 33.75454 | 25975 ft | 392 kts | 305° |
| 2026-04-28 23:02 | 28.48874 | 33.73053 | 25977 ft | 390 kts | 304° |
| 2026-04-28 23:02 | 28.50589 | 33.70646 | 25973 ft | 391 kts | 305° |
| 2026-04-28 23:03 | 28.52304 | 33.68242 | 25975 ft | 390 kts | 304° |
| 2026-04-28 23:03 | 28.53997 | 33.65863 | 25980 ft | 392 kts | 305° |
| 2026-04-28 23:03 | 28.55719 | 33.63445 | 25988 ft | 393 kts | 304° |
| 2026-04-28 23:03 | 28.57435 | 33.61033 | 25983 ft | 391 kts | 305° |
| 2026-04-28 23:04 | 28.59156 | 33.58619 | 25981 ft | 392 kts | 305° |
| 2026-04-28 23:04 | 28.62572 | 33.53820 | 25982 ft | 390 kts | 305° |
| 2026-04-28 23:04 | 28.64283 | 33.51411 | 25983 ft | 391 kts | 305° |
| 2026-04-28 23:05 | 28.65995 | 33.48997 | 25983 ft | 391 kts | 305° |
| 2026-04-28 23:05 | 28.67688 | 33.46608 | 25978 ft | 391 kts | 305° |
| 2026-04-28 23:05 | 28.69395 | 33.44198 | 25979 ft | 391 kts | 305° |
| 2026-04-28 23:05 | 28.71105 | 33.41784 | 25986 ft | 391 kts | 304° |
| 2026-04-28 23:06 | 28.72818 | 33.39365 | 25986 ft | 391 kts | 305° |
| 2026-04-28 23:06 | 28.74529 | 33.36947 | 25983 ft | 391 kts | 305° |
| 2026-04-28 23:06 | 28.76234 | 33.34536 | 25975 ft | 391 kts | 305° |
| 2026-04-28 23:06 | 28.77941 | 33.32119 | 25981 ft | 391 kts | 305° |
| 2026-04-28 23:07 | 28.79647 | 33.29704 | 25981 ft | 391 kts | 305° |
| 2026-04-28 23:07 | 28.81336 | 33.27312 | 25983 ft | 391 kts | 305° |
| 2026-04-28 23:07 | 28.83042 | 33.24893 | 25981 ft | 391 kts | 305° |
| 2026-04-28 23:07 | 28.84754 | 33.22466 | 25981 ft | 390 kts | 305° |
| 2026-04-28 23:08 | 28.86439 | 33.20075 | 25987 ft | 390 kts | 305° |
| 2026-04-28 23:08 | 28.88147 | 33.17650 | 25986 ft | 390 kts | 305° |
| 2026-04-28 23:08 | 28.89850 | 33.15230 | 25982 ft | 390 kts | 305° |
| 2026-04-28 23:08 | 28.91547 | 33.12817 | 25984 ft | 390 kts | 305° |
| 2026-04-28 23:09 | 28.93248 | 33.10398 | 25986 ft | 390 kts | 305° |
| 2026-04-28 23:09 | 28.94929 | 33.08007 | 25982 ft | 390 kts | 305° |
| 2026-04-28 23:09 | 28.96630 | 33.05584 | 25984 ft | 389 kts | 305° |
| 2026-04-28 23:09 | 28.98325 | 33.03169 | 25984 ft | 389 kts | 305° |
| 2026-04-28 23:10 | 28.99999 | 33.00782 | 25985 ft | 389 kts | 304° |
| 2026-04-28 23:10 | 29.01703 | 32.98352 | 25984 ft | 389 kts | 304° |
| 2026-04-28 23:10 | 29.03400 | 32.95929 | 25983 ft | 389 kts | 304° |
| 2026-04-28 23:10 | 29.05067 | 32.93548 | 25988 ft | 389 kts | 304° |
| 2026-04-28 23:11 | 29.06762 | 32.91126 | 25983 ft | 389 kts | 304° |
| 2026-04-28 23:11 | 29.08453 | 32.88708 | 25983 ft | 389 kts | 304° |
| 2026-04-28 23:11 | 29.10144 | 32.86289 | 25986 ft | 388 kts | 304° |
| 2026-04-28 23:11 | 29.11814 | 32.83898 | 25913 ft | 389 kts | 304° |
| 2026-04-28 23:12 | 29.13499 | 32.81484 | 25599 ft | 388 kts | 304° |
| 2026-04-28 23:12 | 29.15187 | 32.79067 | 25238 ft | 386 kts | 304° |
| 2026-04-28 23:12 | 29.16858 | 32.76671 | 24889 ft | 384 kts | 304° |
| 2026-04-28 23:12 | 29.18526 | 32.74279 | 24540 ft | 382 kts | 304° |
| 2026-04-28 23:13 | 29.20185 | 32.71897 | 24193 ft | 381 kts | 304° |
| 2026-04-28 23:13 | 29.21838 | 32.69521 | 23851 ft | 380 kts | 304° |
| 2026-04-28 23:13 | 29.23462 | 32.67187 | 23509 ft | 379 kts | 304° |
| 2026-04-28 23:13 | 29.25109 | 32.64818 | 23087 ft | 377 kts | 304° |
| 2026-04-28 23:14 | 29.26739 | 32.62472 | 22694 ft | 375 kts | 304° |
| 2026-04-28 23:14 | 29.28364 | 32.60133 | 22307 ft | 373 kts | 304° |
| 2026-04-28 23:14 | 29.29955 | 32.57830 | 21919 ft | 371 kts | 304° |
| 2026-04-28 23:14 | 29.31549 | 32.55509 | 21534 ft | 369 kts | 304° |
| 2026-04-28 23:15 | 29.33135 | 32.53196 | 21153 ft | 368 kts | 304° |
| 2026-04-28 23:15 | 29.34712 | 32.50896 | 20783 ft | 366 kts | 305° |
| 2026-04-28 23:15 | 29.36285 | 32.48599 | 20407 ft | 365 kts | 305° |
| 2026-04-28 23:15 | 29.37852 | 32.46314 | 20041 ft | 363 kts | 305° |
| 2026-04-28 23:16 | 29.39389 | 32.44070 | 19688 ft | 361 kts | 305° |
| 2026-04-28 23:16 | 29.40940 | 32.41806 | 19338 ft | 361 kts | 305° |
| 2026-04-28 23:16 | 29.42495 | 32.39535 | 18974 ft | 360 kts | 305° |
| 2026-04-28 23:16 | 29.44045 | 32.37270 | 18632 ft | 358 kts | 305° |
| 2026-04-28 23:17 | 29.45573 | 32.35038 | 18281 ft | 357 kts | 305° |
| 2026-04-28 23:17 | 29.47111 | 32.32787 | 17870 ft | 356 kts | 306° |
| 2026-04-28 23:17 | 29.48614 | 32.30585 | 17490 ft | 354 kts | 306° |
| 2026-04-28 23:17 | 29.50131 | 32.28362 | 17104 ft | 352 kts | 306° |
| 2026-04-28 23:18 | 29.51639 | 32.26151 | 16721 ft | 351 kts | 306° |
| 2026-04-28 23:18 | 29.53141 | 32.23949 | 16345 ft | 349 kts | 306° |
| 2026-04-28 23:18 | 29.54638 | 32.21752 | 15972 ft | 349 kts | 306° |
| 2026-04-28 23:18 | 29.56130 | 32.19560 | 15636 ft | 346 kts | 306° |
| 2026-04-28 23:19 | 29.57613 | 32.17383 | 15348 ft | 345 kts | 306° |
| 2026-04-28 23:19 | 29.59072 | 32.15239 | 15059 ft | 345 kts | 306° |
| 2026-04-28 23:19 | 29.60547 | 32.13070 | 14771 ft | 344 kts | 306° |
| 2026-04-28 23:19 | 29.62021 | 32.10903 | 14480 ft | 342 kts | 306° |
| 2026-04-28 23:20 | 29.63488 | 32.08744 | 14200 ft | 341 kts | 306° |
| 2026-04-28 23:20 | 29.64946 | 32.06597 | 13917 ft | 340 kts | 306° |
| 2026-04-28 23:20 | 29.66391 | 32.04469 | 13621 ft | 339 kts | 307° |
| 2026-04-28 23:20 | 29.67843 | 32.02328 | 13306 ft | 338 kts | 307° |
| 2026-04-28 23:21 | 29.69287 | 32.00200 | 12990 ft | 336 kts | 307° |
| 2026-04-28 23:21 | 29.70720 | 31.98085 | 12685 ft | 334 kts | 307° |
| 2026-04-28 23:21 | 29.72151 | 31.95973 | 12374 ft | 333 kts | 307° |
| 2026-04-28 23:21 | 29.73558 | 31.93894 | 12074 ft | 332 kts | 307° |
| 2026-04-28 23:22 | 29.74972 | 31.91804 | 11773 ft | 330 kts | 307° |
| 2026-04-28 23:22 | 29.76383 | 31.89719 | 11465 ft | 329 kts | 307° |
| 2026-04-28 23:22 | 29.77777 | 31.87657 | 11126 ft | 323 kts | 307° |
| 2026-04-28 23:22 | 29.79140 | 31.85628 | 10784 ft | 316 kts | 306° |
| 2026-04-28 23:23 | 29.80442 | 31.83613 | 10437 ft | 310 kts | 306° |
| 2026-04-28 23:23 | 29.81689 | 31.81652 | 10116 ft | 304 kts | 305° |
| 2026-04-28 23:23 | 29.82925 | 31.79706 | 9765 ft | 298 kts | 306° |
| 2026-04-28 23:23 | 29.83342 | 31.79052 | 9616 ft | 297 kts | 306° |
| 2026-04-28 23:24 | 29.84392 | 31.77407 | 9233 ft | 295 kts | 306° |
| 2026-04-28 23:24 | 29.85602 | 31.75515 | 8788 ft | 291 kts | 306° |
| 2026-04-28 23:24 | 29.86788 | 31.73663 | 8356 ft | 283 kts | 306° |
| 2026-04-28 23:24 | 29.87928 | 31.71884 | 7942 ft | 276 kts | 306° |
| 2026-04-28 23:25 | 29.89021 | 31.70104 | 7517 ft | 269 kts | 298° |
| 2026-04-28 23:25 | 29.89748 | 31.68152 | 7116 ft | 262 kts | 292° |
| 2026-04-28 23:25 | 29.90422 | 31.66214 | 6693 ft | 257 kts | 292° |
| 2026-04-28 23:25 | 29.91079 | 31.64316 | 6298 ft | 252 kts | 292° |
| 2026-04-28 23:26 | 29.91727 | 31.62448 | 5869 ft | 248 kts | 292° |
| 2026-04-28 23:26 | 29.92357 | 31.60632 | 5453 ft | 245 kts | 292° |
| 2026-04-28 23:26 | 29.92986 | 31.58823 | 5136 ft | 237 kts | 293° |
| 2026-04-28 23:26 | 29.93581 | 31.57109 | 5011 ft | 223 kts | 293° |
| 2026-04-28 23:27 | 29.93956 | 31.56032 | 4973 ft | 213 kts | 293° |
| 2026-04-28 23:27 | 29.94609 | 31.54157 | 4712 ft | 207 kts | 293° |
| 2026-04-28 23:27 | 29.95142 | 31.52627 | 4462 ft | 204 kts | 293° |
| 2026-04-28 23:27 | 29.95677 | 31.51093 | 4211 ft | 207 kts | 293° |
| 2026-04-28 23:28 | 29.96211 | 31.49556 | 3956 ft | 206 kts | 293° |
| 2026-04-28 23:28 | 29.96749 | 31.48008 | 3697 ft | 208 kts | 294° |
| 2026-04-28 23:28 | 29.97280 | 31.46477 | 3409 ft | 207 kts | 294° |
| 2026-04-28 23:28 | 29.97810 | 31.44950 | 3284 ft | 205 kts | 294° |
| 2026-04-28 23:29 | 29.98327 | 31.43457 | 3370 ft | 190 kts | 294° |
| 2026-04-28 23:29 | 29.98808 | 31.42064 | 3364 ft | 186 kts | 294° |
| 2026-04-28 23:29 | 29.99289 | 31.40678 | 3363 ft | 186 kts | 294° |
| 2026-04-28 23:29 | 29.99753 | 31.39341 | 3359 ft | 174 kts | 294° |
| 2026-04-28 23:30 | 30.00180 | 31.38098 | 3346 ft | 162 kts | 294° |
| 2026-04-28 23:30 | 30.00607 | 31.36870 | 3353 ft | 166 kts | 294° |
| 2026-04-28 23:30 | 30.01037 | 31.35630 | 3212 ft | 167 kts | 294° |
| 2026-04-28 23:30 | 30.01471 | 31.34397 | 2982 ft | 163 kts | 298° |
| 2026-04-28 23:31 | 30.02293 | 31.33569 | 2668 ft | 162 kts | 349° |
| 2026-04-28 23:31 | 30.03359 | 31.33833 | 2421 ft | 159 kts | 30° |
| 2026-04-28 23:31 | 30.04192 | 31.34595 | 2196 ft | 151 kts | 43° |
| 2026-04-28 23:31 | 30.04896 | 31.35448 | 1989 ft | 143 kts | 47° |
| 2026-04-28 23:32 | 30.05554 | 31.36312 | 1791 ft | 143 kts | 48° |
| 2026-04-28 23:32 | 30.06208 | 31.37186 | 1598 ft | 144 kts | 49° |
| 2026-04-28 23:32 | 30.06862 | 31.38063 | 1424 ft | 145 kts | 48° |
| 2026-04-28 23:32 | 30.07519 | 31.38943 | 1223 ft | 144 kts | 49° |
| 2026-04-28 23:33 | 30.08165 | 31.39809 | 1025 ft | 142 kts | 50° |
| 2026-04-28 23:33 | 30.08810 | 31.40673 | 827 ft | 141 kts | 50° |
| 2026-04-28 23:33 | 30.09436 | 31.41536 | 635 ft | 142 kts | 50° |
| 2026-04-28 23:33 | 30.10090 | 31.42403 | 477 ft | 141 kts | 50° |
| 2026-04-28 23:34 | 30.10675 | 31.43185 | 463 ft | 112 kts | 50° |
| 2026-04-28 23:34 | 30.11052 | 31.43688 | 464 ft | 54 kts | 49° |
| 2026-04-28 23:34 | 30.11262 | 31.43929 | 463 ft | 39 kts | 36° |
| 2026-04-28 23:34 | 30.11379 | 31.44008 | 459 ft | 12 kts | 24° |
| 2026-04-28 23:35 | 30.11466 | 31.44055 | 457 ft | 16 kts | 26° |
| 2026-04-28 23:35 | 30.11581 | 31.44100 | 454 ft | 20 kts | 9° |
| 2026-04-28 23:35 | 30.11641 | 31.44006 | 447 ft | 22 kts | 229° |
| 2026-04-28 23:35 | 30.11535 | 31.43873 | 447 ft | 23 kts | 230° |
| 2026-04-28 23:36 | 30.11423 | 31.43725 | 447 ft | 24 kts | 230° |
| 2026-04-28 23:36 | 30.11307 | 31.43570 | 448 ft | 26 kts | 230° |
| 2026-04-28 23:36 | 30.11263 | 31.43405 | 439 ft | 24 kts | 316° |
| 2026-04-28 23:36 | 30.11405 | 31.43267 | 432 ft | 30 kts | 317° |
| 2026-04-28 23:37 | 30.11575 | 31.43098 | 418 ft | 36 kts | 319° |
| 2026-04-28 23:37 | 30.11776 | 31.42897 | 401 ft | 40 kts | 318° |
| 2026-04-28 23:37 | 30.11946 | 31.42728 | 387 ft | 24 kts | 319° |
| 2026-04-28 23:37 | 30.12069 | 31.42606 | 381 ft | 22 kts | 319° |
| 2026-04-28 23:38 | 30.12193 | 31.42479 | 370 ft | 25 kts | 308° |
| 2026-04-28 23:38 | 30.12159 | 31.42348 | 367 ft | 16 kts | 226° |
| 2026-04-28 23:38 | 30.12080 | 31.42241 | 367 ft | 19 kts | 229° |
| 2026-04-28 23:38 | 30.11989 | 31.42120 | 371 ft | 21 kts | 229° |
| 2026-04-28 23:39 | 30.11889 | 31.41987 | 371 ft | 23 kts | 229° |
| 2026-04-28 23:39 | 30.11778 | 31.41840 | 370 ft | 25 kts | 230° |
| 2026-04-28 23:39 | 30.11660 | 31.41680 | 368 ft | 27 kts | 230° |
| 2026-04-28 23:39 | 30.11535 | 31.41509 | 368 ft | 29 kts | 228° |
| 2026-04-28 23:40 | 30.11410 | 31.41346 | 369 ft | 10 kts | 231° |
| 2026-04-28 23:40 | 30.11407 | 31.41279 | 368 ft | 12 kts | 297° |
| 2026-04-28 23:40 | 30.11402 | 31.41163 | 364 ft | 18 kts | 233° |
| 2026-04-28 23:40 | 30.11309 | 31.41056 | 363 ft | 20 kts | 231° |
| 2026-04-28 23:41 | 30.11216 | 31.40927 | 366 ft | 22 kts | 229° |
| 2026-04-28 23:41 | 30.11110 | 31.40791 | 364 ft | 24 kts | 225° |
| 2026-04-28 23:41 | 30.11024 | 31.40642 | 365 ft | 18 kts | 280° |
| 2026-04-28 23:41 | 30.11087 | 31.40552 | 362 ft | 9 kts | 284° |
| 2026-04-28 23:42 | 30.11084 | 31.40489 | 354 ft | 7 kts | 265° |
| 2026-04-28 23:42 | 30.11082 | 31.40471 | 354 ft | 0 kts | 265° |